sensor_id;sensor_type;location;lat;lon;timestamp;P1;durP1;ratioP1;P2;durP2;ratioP2
79493;SDS011;68951;53.130;18.104;2023-06-14T00:00:44;7.20;;;3.40;;
79493;SDS011;68951;53.130;18.104;2023-06-14T00:03:31;7.90;;;3.40;;
79493;SDS011;68951;53.130;18.104;2023-06-14T00:05:58;8.50;;;3.70;;
79493;SDS011;68951;53.130;18.104;2023-06-14T00:08:25;7.30;;;3.50;;
79493;SDS011;68951;53.130;18.104;2023-06-14T00:10:52;7.50;;;3.60;;
79493;SDS011;68951;53.130;18.104;2023-06-14T00:13:20;10.30;;;4.10;;
79493;SDS011;68951;53.130;18.104;2023-06-14T00:15:46;8.10;;;4.30;;
79493;SDS011;68951;53.130;18.104;2023-06-14T00:18:14;7.00;;;4.10;;
79493;SDS011;68951;53.130;18.104;2023-06-14T00:20:41;8.20;;;4.10;;
79493;SDS011;68951;53.130;18.104;2023-06-14T00:23:09;8.50;;;3.60;;
79493;SDS011;68951;53.130;18.104;2023-06-14T00:25:36;9.30;;;3.40;;
79493;SDS011;68951;53.130;18.104;2023-06-14T00:28:03;7.60;;;3.50;;
79493;SDS011;68951;53.130;18.104;2023-06-14T00:30:30;8.50;;;3.90;;
79493;SDS011;68951;53.130;18.104;2023-06-14T00:32:57;8.50;;;3.90;;
79493;SDS011;68951;53.130;18.104;2023-06-14T00:35:24;8.00;;;3.40;;
79493;SDS011;68951;53.130;18.104;2023-06-14T00:37:52;7.10;;;3.60;;
79493;SDS011;68951;53.130;18.104;2023-06-14T00:40:21;7.10;;;3.50;;
79493;SDS011;68951;53.130;18.104;2023-06-14T00:42:48;7.40;;;3.60;;
79493;SDS011;68951;53.130;18.104;2023-06-14T00:45:15;7.10;;;3.60;;
79493;SDS011;68951;53.130;18.104;2023-06-14T00:47:42;6.90;;;3.10;;
79493;SDS011;68951;53.130;18.104;2023-06-14T00:50:10;7.20;;;3.90;;
79493;SDS011;68951;53.130;18.104;2023-06-14T00:52:38;7.90;;;3.40;;
79493;SDS011;68951;53.130;18.104;2023-06-14T00:55:05;7.80;;;3.60;;
79493;SDS011;68951;53.130;18.104;2023-06-14T00:57:33;5.90;;;3.20;;
79493;SDS011;68951;53.130;18.104;2023-06-14T01:00:04;6.40;;;3.30;;
79493;SDS011;68951;53.130;18.104;2023-06-14T01:02:36;5.90;;;3.30;;
79493;SDS011;68951;53.130;18.104;2023-06-14T01:05:05;8.00;;;3.50;;
79493;SDS011;68951;53.130;18.104;2023-06-14T01:16:03;9.60;;;4.20;;
79493;SDS011;68951;53.130;18.104;2023-06-14T01:18:31;7.80;;;4.50;;
79493;SDS011;68951;53.130;18.104;2023-06-14T01:21:00;7.30;;;4.10;;
79493;SDS011;68951;53.130;18.104;2023-06-14T01:23:32;8.70;;;4.20;;
79493;SDS011;68951;53.130;18.104;2023-06-14T01:26:00;8.70;;;4.50;;
79493;SDS011;68951;53.130;18.104;2023-06-14T01:28:29;8.40;;;4.50;;
79493;SDS011;68951;53.130;18.104;2023-06-14T01:31:00;10.70;;;4.50;;
79493;SDS011;68951;53.130;18.104;2023-06-14T01:33:31;10.10;;;4.90;;
79493;SDS011;68951;53.130;18.104;2023-06-14T01:36:01;10.10;;;4.30;;
79493;SDS011;68951;53.130;18.104;2023-06-14T01:38:30;9.00;;;4.90;;
79493;SDS011;68951;53.130;18.104;2023-06-14T01:40:58;8.30;;;4.40;;
79493;SDS011;68951;53.130;18.104;2023-06-14T01:43:30;8.90;;;4.60;;
79493;SDS011;68951;53.130;18.104;2023-06-14T01:45:58;7.80;;;4.50;;
79493;SDS011;68951;53.130;18.104;2023-06-14T01:48:26;7.60;;;4.50;;
79493;SDS011;68951;53.130;18.104;2023-06-14T01:50:53;7.70;;;4.60;;
79493;SDS011;68951;53.130;18.104;2023-06-14T01:53:20;8.80;;;4.20;;
79493;SDS011;68951;53.130;18.104;2023-06-14T01:55:47;9.00;;;4.90;;
79493;SDS011;68951;53.130;18.104;2023-06-14T01:58:15;8.90;;;5.00;;
79493;SDS011;68951;53.130;18.104;2023-06-14T02:00:43;9.20;;;4.70;;
79493;SDS011;68951;53.130;18.104;2023-06-14T02:03:11;11.40;;;4.80;;
79493;SDS011;68951;53.130;18.104;2023-06-14T02:05:39;9.30;;;4.30;;
79493;SDS011;68951;53.130;18.104;2023-06-14T02:08:06;7.80;;;4.30;;
79493;SDS011;68951;53.130;18.104;2023-06-14T02:10:34;11.20;;;4.50;;
79493;SDS011;68951;53.130;18.104;2023-06-14T02:13:01;9.70;;;4.30;;
79493;SDS011;68951;53.130;18.104;2023-06-14T02:15:28;10.20;;;3.70;;
79493;SDS011;68951;53.130;18.104;2023-06-14T02:18:01;8.60;;;4.10;;
79493;SDS011;68951;53.130;18.104;2023-06-14T02:20:29;9.80;;;4.30;;
79493;SDS011;68951;53.130;18.104;2023-06-14T02:22:57;8.80;;;3.90;;
79493;SDS011;68951;53.130;18.104;2023-06-14T02:25:24;7.90;;;3.90;;
79493;SDS011;68951;53.130;18.104;2023-06-14T02:27:51;7.10;;;4.00;;
79493;SDS011;68951;53.130;18.104;2023-06-14T02:30:18;7.30;;;3.80;;
79493;SDS011;68951;53.130;18.104;2023-06-14T02:32:45;7.60;;;4.10;;
79493;SDS011;68951;53.130;18.104;2023-06-14T02:35:12;8.20;;;4.10;;
79493;SDS011;68951;53.130;18.104;2023-06-14T02:37:39;9.50;;;4.80;;
79493;SDS011;68951;53.130;18.104;2023-06-14T02:40:07;8.50;;;4.70;;
79493;SDS011;68951;53.130;18.104;2023-06-14T02:42:35;12.70;;;5.40;;
79493;SDS011;68951;53.130;18.104;2023-06-14T02:45:02;10.90;;;4.90;;
79493;SDS011;68951;53.130;18.104;2023-06-14T02:47:30;9.10;;;5.20;;
79493;SDS011;68951;53.130;18.104;2023-06-14T02:49:57;10.10;;;4.60;;
79493;SDS011;68951;53.130;18.104;2023-06-14T02:52:24;10.70;;;4.80;;
79493;SDS011;68951;53.130;18.104;2023-06-14T02:54:51;8.20;;;3.90;;
79493;SDS011;68951;53.130;18.104;2023-06-14T02:57:18;8.20;;;4.00;;
79493;SDS011;68951;53.130;18.104;2023-06-14T02:59:45;9.60;;;4.80;;
79493;SDS011;68951;53.130;18.104;2023-06-14T03:02:12;10.20;;;4.40;;
79493;SDS011;68951;53.130;18.104;2023-06-14T03:04:39;10.20;;;4.60;;
79493;SDS011;68951;53.130;18.104;2023-06-14T03:07:07;8.00;;;4.20;;
79493;SDS011;68951;53.130;18.104;2023-06-14T03:09:37;9.50;;;3.80;;
79493;SDS011;68951;53.130;18.104;2023-06-14T03:12:06;9.00;;;4.20;;
79493;SDS011;68951;53.130;18.104;2023-06-14T03:14:36;6.80;;;3.50;;
79493;SDS011;68951;53.130;18.104;2023-06-14T03:17:03;8.70;;;3.80;;
79493;SDS011;68951;53.130;18.104;2023-06-14T03:19:31;8.70;;;3.70;;
79493;SDS011;68951;53.130;18.104;2023-06-14T03:21:58;7.80;;;3.40;;
79493;SDS011;68951;53.130;18.104;2023-06-14T03:24:25;9.70;;;3.50;;
79493;SDS011;68951;53.130;18.104;2023-06-14T03:26:55;9.80;;;3.70;;
79493;SDS011;68951;53.130;18.104;2023-06-14T03:29:23;11.00;;;4.30;;
79493;SDS011;68951;53.130;18.104;2023-06-14T03:32:00;8.40;;;3.90;;
79493;SDS011;68951;53.130;18.104;2023-06-14T03:34:29;10.00;;;3.80;;
79493;SDS011;68951;53.130;18.104;2023-06-14T03:36:55;10.90;;;4.80;;
79493;SDS011;68951;53.130;18.104;2023-06-14T03:39:22;10.30;;;4.10;;
79493;SDS011;68951;53.130;18.104;2023-06-14T03:41:49;9.50;;;3.90;;
79493;SDS011;68951;53.130;18.104;2023-06-14T03:44:17;9.60;;;3.50;;
79493;SDS011;68951;53.130;18.104;2023-06-14T03:46:45;9.40;;;4.00;;
79493;SDS011;68951;53.130;18.104;2023-06-14T03:49:12;9.40;;;4.20;;
79493;SDS011;68951;53.130;18.104;2023-06-14T03:51:39;11.50;;;3.80;;
79493;SDS011;68951;53.130;18.104;2023-06-14T03:54:07;9.20;;;3.40;;
79493;SDS011;68951;53.130;18.104;2023-06-14T03:56:34;8.60;;;3.40;;
79493;SDS011;68951;53.130;18.104;2023-06-14T03:59:01;7.90;;;3.30;;
79493;SDS011;68951;53.130;18.104;2023-06-14T04:01:28;10.30;;;3.50;;
79493;SDS011;68951;53.130;18.104;2023-06-14T04:03:57;9.00;;;3.30;;
79493;SDS011;68951;53.130;18.104;2023-06-14T04:06:24;8.40;;;3.60;;
79493;SDS011;68951;53.130;18.104;2023-06-14T04:09:00;11.10;;;4.20;;
79493;SDS011;68951;53.130;18.104;2023-06-14T04:11:29;11.60;;;4.70;;
79493;SDS011;68951;53.130;18.104;2023-06-14T04:13:56;9.40;;;4.80;;
79493;SDS011;68951;53.130;18.104;2023-06-14T04:16:24;9.20;;;4.60;;
79493;SDS011;68951;53.130;18.104;2023-06-14T04:18:51;10.80;;;4.70;;
79493;SDS011;68951;53.130;18.104;2023-06-14T04:21:19;9.30;;;4.40;;
79493;SDS011;68951;53.130;18.104;2023-06-14T04:23:46;10.60;;;4.30;;
79493;SDS011;68951;53.130;18.104;2023-06-14T04:26:13;12.00;;;4.40;;
79493;SDS011;68951;53.130;18.104;2023-06-14T04:28:41;11.50;;;4.40;;
79493;SDS011;68951;53.130;18.104;2023-06-14T04:31:07;10.90;;;4.90;;
79493;SDS011;68951;53.130;18.104;2023-06-14T04:33:38;11.00;;;4.40;;
79493;SDS011;68951;53.130;18.104;2023-06-14T04:36:10;11.00;;;4.60;;
79493;SDS011;68951;53.130;18.104;2023-06-14T04:38:40;9.50;;;4.40;;
79493;SDS011;68951;53.130;18.104;2023-06-14T04:41:07;7.80;;;4.30;;
79493;SDS011;68951;53.130;18.104;2023-06-14T04:43:38;8.90;;;4.00;;
79493;SDS011;68951;53.130;18.104;2023-06-14T04:46:05;11.50;;;4.70;;
79493;SDS011;68951;53.130;18.104;2023-06-14T04:48:38;11.80;;;5.10;;
79493;SDS011;68951;53.130;18.104;2023-06-14T04:51:08;13.60;;;5.30;;
79493;SDS011;68951;53.130;18.104;2023-06-14T04:53:35;13.20;;;5.60;;
79493;SDS011;68951;53.130;18.104;2023-06-14T04:56:03;12.60;;;5.20;;
79493;SDS011;68951;53.130;18.104;2023-06-14T04:58:30;9.10;;;3.70;;
79493;SDS011;68951;53.130;18.104;2023-06-14T05:00:59;7.70;;;4.40;;
79493;SDS011;68951;53.130;18.104;2023-06-14T05:03:26;9.60;;;4.90;;
79493;SDS011;68951;53.130;18.104;2023-06-14T05:05:54;11.20;;;5.00;;
79493;SDS011;68951;53.130;18.104;2023-06-14T05:08:21;9.40;;;4.00;;
79493;SDS011;68951;53.130;18.104;2023-06-14T05:10:52;10.20;;;4.20;;
79493;SDS011;68951;53.130;18.104;2023-06-14T05:13:19;10.30;;;4.10;;
79493;SDS011;68951;53.130;18.104;2023-06-14T05:15:47;9.70;;;4.60;;
79493;SDS011;68951;53.130;18.104;2023-06-14T05:18:15;10.90;;;4.60;;
79493;SDS011;68951;53.130;18.104;2023-06-14T05:20:42;7.80;;;4.50;;
79493;SDS011;68951;53.130;18.104;2023-06-14T05:23:09;8.80;;;3.90;;
79493;SDS011;68951;53.130;18.104;2023-06-14T05:25:43;8.30;;;4.40;;
79493;SDS011;68951;53.130;18.104;2023-06-14T05:28:11;8.60;;;4.20;;
79493;SDS011;68951;53.130;18.104;2023-06-14T05:30:38;9.30;;;4.80;;
79493;SDS011;68951;53.130;18.104;2023-06-14T05:33:06;10.70;;;4.20;;
79493;SDS011;68951;53.130;18.104;2023-06-14T05:35:33;11.90;;;4.50;;
79493;SDS011;68951;53.130;18.104;2023-06-14T05:38:01;11.10;;;4.70;;
79493;SDS011;68951;53.130;18.104;2023-06-14T05:40:28;8.20;;;4.60;;
79493;SDS011;68951;53.130;18.104;2023-06-14T05:42:55;10.30;;;4.60;;
79493;SDS011;68951;53.130;18.104;2023-06-14T05:45:22;11.50;;;4.60;;
79493;SDS011;68951;53.130;18.104;2023-06-14T05:47:49;11.30;;;4.00;;
79493;SDS011;68951;53.130;18.104;2023-06-14T05:50:16;11.40;;;4.80;;
79493;SDS011;68951;53.130;18.104;2023-06-14T05:52:43;9.20;;;4.10;;
79493;SDS011;68951;53.130;18.104;2023-06-14T05:55:10;7.10;;;4.30;;
79493;SDS011;68951;53.130;18.104;2023-06-14T05:57:38;10.50;;;4.30;;
79493;SDS011;68951;53.130;18.104;2023-06-14T06:00:07;11.50;;;4.50;;
79493;SDS011;68951;53.130;18.104;2023-06-14T06:02:37;8.60;;;3.90;;
79493;SDS011;68951;53.130;18.104;2023-06-14T06:05:05;8.50;;;3.80;;
79493;SDS011;68951;53.130;18.104;2023-06-14T06:07:32;9.10;;;4.60;;
79493;SDS011;68951;53.130;18.104;2023-06-14T06:09:59;9.20;;;4.70;;
79493;SDS011;68951;53.130;18.104;2023-06-14T06:12:26;9.40;;;4.90;;
79493;SDS011;68951;53.130;18.104;2023-06-14T06:14:53;9.10;;;4.40;;
79493;SDS011;68951;53.130;18.104;2023-06-14T06:17:20;9.40;;;4.00;;
79493;SDS011;68951;53.130;18.104;2023-06-14T06:19:47;10.90;;;4.30;;
79493;SDS011;68951;53.130;18.104;2023-06-14T06:22:14;8.50;;;3.90;;
79493;SDS011;68951;53.130;18.104;2023-06-14T06:24:41;9.20;;;4.30;;
79493;SDS011;68951;53.130;18.104;2023-06-14T06:27:08;7.90;;;4.10;;
79493;SDS011;68951;53.130;18.104;2023-06-14T06:29:35;7.80;;;3.40;;
79493;SDS011;68951;53.130;18.104;2023-06-14T06:32:02;7.50;;;3.50;;
79493;SDS011;68951;53.130;18.104;2023-06-14T06:34:29;9.40;;;3.50;;
79493;SDS011;68951;53.130;18.104;2023-06-14T06:36:56;8.90;;;3.70;;
79493;SDS011;68951;53.130;18.104;2023-06-14T06:39:23;8.20;;;3.50;;
79493;SDS011;68951;53.130;18.104;2023-06-14T06:41:50;10.60;;;3.60;;
79493;SDS011;68951;53.130;18.104;2023-06-14T06:44:16;8.80;;;3.40;;
79493;SDS011;68951;53.130;18.104;2023-06-14T06:46:43;7.80;;;2.80;;
79493;SDS011;68951;53.130;18.104;2023-06-14T06:49:11;6.90;;;3.20;;
79493;SDS011;68951;53.130;18.104;2023-06-14T06:51:44;6.90;;;3.20;;
79493;SDS011;68951;53.130;18.104;2023-06-14T06:54:34;8.70;;;3.40;;
79493;SDS011;68951;53.130;18.104;2023-06-14T06:57:01;8.50;;;3.60;;
79493;SDS011;68951;53.130;18.104;2023-06-14T06:59:28;8.90;;;3.50;;
79493;SDS011;68951;53.130;18.104;2023-06-14T07:01:55;9.30;;;3.50;;
79493;SDS011;68951;53.130;18.104;2023-06-14T07:04:22;8.50;;;3.80;;
79493;SDS011;68951;53.130;18.104;2023-06-14T07:06:49;9.80;;;3.60;;
79493;SDS011;68951;53.130;18.104;2023-06-14T07:09:16;9.20;;;3.50;;
79493;SDS011;68951;53.130;18.104;2023-06-14T07:11:43;8.90;;;3.30;;
79493;SDS011;68951;53.130;18.104;2023-06-14T07:14:11;6.80;;;3.70;;
79493;SDS011;68951;53.130;18.104;2023-06-14T07:16:39;9.10;;;3.20;;
79493;SDS011;68951;53.130;18.104;2023-06-14T07:19:07;8.10;;;3.30;;
79493;SDS011;68951;53.130;18.104;2023-06-14T07:21:35;8.60;;;3.70;;
79493;SDS011;68951;53.130;18.104;2023-06-14T07:24:07;8.00;;;3.50;;
79493;SDS011;68951;53.130;18.104;2023-06-14T07:26:35;13.30;;;4.60;;
79493;SDS011;68951;53.130;18.104;2023-06-14T07:29:02;13.40;;;4.90;;
79493;SDS011;68951;53.130;18.104;2023-06-14T07:31:29;17.80;;;5.30;;
79493;SDS011;68951;53.130;18.104;2023-06-14T07:33:56;15.30;;;5.30;;
79493;SDS011;68951;53.130;18.104;2023-06-14T07:36:23;11.80;;;4.30;;
79493;SDS011;68951;53.130;18.104;2023-06-14T07:38:50;12.10;;;4.60;;
79493;SDS011;68951;53.130;18.104;2023-06-14T07:41:17;15.90;;;4.90;;
79493;SDS011;68951;53.130;18.104;2023-06-14T07:43:44;12.20;;;3.90;;
79493;SDS011;68951;53.130;18.104;2023-06-14T07:46:11;12.60;;;4.70;;
79493;SDS011;68951;53.130;18.104;2023-06-14T07:48:38;7.90;;;3.70;;
79493;SDS011;68951;53.130;18.104;2023-06-14T07:51:05;9.70;;;3.70;;
79493;SDS011;68951;53.130;18.104;2023-06-14T07:53:32;8.10;;;3.40;;
79493;SDS011;68951;53.130;18.104;2023-06-14T07:55:59;11.20;;;4.00;;
79493;SDS011;68951;53.130;18.104;2023-06-14T07:58:26;10.10;;;3.50;;
79493;SDS011;68951;53.130;18.104;2023-06-14T08:00:53;8.90;;;3.40;;
79493;SDS011;68951;53.130;18.104;2023-06-14T08:03:20;8.30;;;3.40;;
79493;SDS011;68951;53.130;18.104;2023-06-14T08:05:47;9.30;;;3.40;;
79493;SDS011;68951;53.130;18.104;2023-06-14T08:08:14;8.80;;;3.20;;
79493;SDS011;68951;53.130;18.104;2023-06-14T08:10:41;8.00;;;3.50;;
79493;SDS011;68951;53.130;18.104;2023-06-14T08:13:08;7.00;;;3.30;;
79493;SDS011;68951;53.130;18.104;2023-06-14T08:15:36;8.20;;;3.20;;
79493;SDS011;68951;53.130;18.104;2023-06-14T08:18:03;8.50;;;3.90;;
79493;SDS011;68951;53.130;18.104;2023-06-14T08:20:30;6.00;;;2.90;;
79493;SDS011;68951;53.130;18.104;2023-06-14T08:22:58;7.70;;;3.70;;
79493;SDS011;68951;53.130;18.104;2023-06-14T08:25:25;8.60;;;4.00;;
79493;SDS011;68951;53.130;18.104;2023-06-14T08:27:52;10.60;;;3.60;;
79493;SDS011;68951;53.130;18.104;2023-06-14T08:30:19;8.50;;;4.00;;
79493;SDS011;68951;53.130;18.104;2023-06-14T08:32:46;7.60;;;3.30;;
79493;SDS011;68951;53.130;18.104;2023-06-14T08:35:13;7.30;;;3.80;;
79493;SDS011;68951;53.130;18.104;2023-06-14T08:37:40;9.40;;;3.80;;
79493;SDS011;68951;53.130;18.104;2023-06-14T08:40:18;6.60;;;3.50;;
79493;SDS011;68951;53.130;18.104;2023-06-14T08:42:51;7.70;;;2.90;;
79493;SDS011;68951;53.130;18.104;2023-06-14T08:45:21;9.10;;;3.60;;
79493;SDS011;68951;53.130;18.104;2023-06-14T08:47:50;8.70;;;3.50;;
79493;SDS011;68951;53.130;18.104;2023-06-14T08:50:22;11.60;;;3.30;;
79493;SDS011;68951;53.130;18.104;2023-06-14T08:52:53;10.20;;;3.30;;
79493;SDS011;68951;53.130;18.104;2023-06-14T08:55:23;9.50;;;3.30;;
79493;SDS011;68951;53.130;18.104;2023-06-14T08:57:55;9.00;;;3.40;;
79493;SDS011;68951;53.130;18.104;2023-06-14T09:00:28;7.70;;;3.10;;
79493;SDS011;68951;53.130;18.104;2023-06-14T09:02:55;10.90;;;3.50;;
79493;SDS011;68951;53.130;18.104;2023-06-14T09:05:26;9.90;;;3.90;;
79493;SDS011;68951;53.130;18.104;2023-06-14T09:07:54;7.70;;;3.10;;
79493;SDS011;68951;53.130;18.104;2023-06-14T09:10:22;6.00;;;2.90;;
79493;SDS011;68951;53.130;18.104;2023-06-14T09:12:50;10.30;;;3.90;;
79493;SDS011;68951;53.130;18.104;2023-06-14T09:15:18;7.60;;;3.40;;
79493;SDS011;68951;53.130;18.104;2023-06-14T09:17:44;10.70;;;4.10;;
79493;SDS011;68951;53.130;18.104;2023-06-14T09:20:11;9.70;;;3.00;;
79493;SDS011;68951;53.130;18.104;2023-06-14T09:22:45;12.10;;;4.30;;
79493;SDS011;68951;53.130;18.104;2023-06-14T09:25:12;10.30;;;3.50;;
79493;SDS011;68951;53.130;18.104;2023-06-14T09:27:41;9.60;;;3.80;;
79493;SDS011;68951;53.130;18.104;2023-06-14T09:30:09;12.70;;;3.80;;
79493;SDS011;68951;53.130;18.104;2023-06-14T09:32:37;8.30;;;3.90;;
79493;SDS011;68951;53.130;18.104;2023-06-14T09:35:08;8.90;;;3.20;;
79493;SDS011;68951;53.130;18.104;2023-06-14T09:37:36;13.60;;;4.20;;
79493;SDS011;68951;53.130;18.104;2023-06-14T09:40:06;10.40;;;3.80;;
79493;SDS011;68951;53.130;18.104;2023-06-14T09:42:33;9.20;;;3.60;;
79493;SDS011;68951;53.130;18.104;2023-06-14T09:45:03;10.20;;;3.40;;
79493;SDS011;68951;53.130;18.104;2023-06-14T09:47:30;6.20;;;3.40;;
79493;SDS011;68951;53.130;18.104;2023-06-14T09:49:57;12.00;;;4.40;;
79493;SDS011;68951;53.130;18.104;2023-06-14T09:52:27;7.20;;;2.80;;
79493;SDS011;68951;53.130;18.104;2023-06-14T09:54:54;10.60;;;3.80;;
79493;SDS011;68951;53.130;18.104;2023-06-14T09:57:23;9.50;;;4.00;;
79493;SDS011;68951;53.130;18.104;2023-06-14T09:59:53;8.20;;;3.70;;
79493;SDS011;68951;53.130;18.104;2023-06-14T10:02:37;7.00;;;3.30;;
79493;SDS011;68951;53.130;18.104;2023-06-14T10:05:07;7.30;;;3.60;;
79493;SDS011;68951;53.130;18.104;2023-06-14T10:07:41;7.10;;;3.00;;
79493;SDS011;68951;53.130;18.104;2023-06-14T10:10:12;10.30;;;4.20;;
79493;SDS011;68951;53.130;18.104;2023-06-14T10:12:39;9.40;;;4.40;;
79493;SDS011;68951;53.130;18.104;2023-06-14T10:15:09;14.90;;;5.20;;
79493;SDS011;68951;53.130;18.104;2023-06-14T10:17:43;10.40;;;4.50;;
79493;SDS011;68951;53.130;18.104;2023-06-14T10:20:25;9.40;;;5.00;;
79493;SDS011;68951;53.130;18.104;2023-06-14T10:23:17;11.60;;;4.10;;
79493;SDS011;68951;53.130;18.104;2023-06-14T10:25:50;9.00;;;4.30;;
79493;SDS011;68951;53.130;18.104;2023-06-14T10:28:23;11.00;;;3.80;;
79493;SDS011;68951;53.130;18.104;2023-06-14T10:31:11;11.80;;;4.40;;
79493;SDS011;68951;53.130;18.104;2023-06-14T10:33:50;9.50;;;4.10;;
79493;SDS011;68951;53.130;18.104;2023-06-14T10:41:38;14.20;;;4.50;;
79493;SDS011;68951;53.130;18.104;2023-06-14T10:46:49;9.30;;;4.30;;
79493;SDS011;68951;53.130;18.104;2023-06-14T10:49:19;9.60;;;4.70;;
79493;SDS011;68951;53.130;18.104;2023-06-14T10:51:51;6.30;;;3.50;;
79493;SDS011;68951;53.130;18.104;2023-06-14T10:54:21;10.80;;;4.30;;
79493;SDS011;68951;53.130;18.104;2023-06-14T10:56:50;12.50;;;4.20;;
79493;SDS011;68951;53.130;18.104;2023-06-14T10:59:19;11.50;;;4.10;;
79493;SDS011;68951;53.130;18.104;2023-06-14T11:04:52;9.10;;;3.60;;
79493;SDS011;68951;53.130;18.104;2023-06-14T11:10:45;8.90;;;4.00;;
79493;SDS011;68951;53.130;18.104;2023-06-14T11:13:16;10.10;;;4.00;;
79493;SDS011;68951;53.130;18.104;2023-06-14T11:15:45;7.70;;;3.50;;
79493;SDS011;68951;53.130;18.104;2023-06-14T11:18:14;7.80;;;3.70;;
79493;SDS011;68951;53.130;18.104;2023-06-14T11:20:46;10.30;;;3.90;;
79493;SDS011;68951;53.130;18.104;2023-06-14T11:23:13;7.40;;;3.50;;
79493;SDS011;68951;53.130;18.104;2023-06-14T11:25:40;10.20;;;3.90;;
79493;SDS011;68951;53.130;18.104;2023-06-14T11:28:06;9.20;;;3.90;;
79493;SDS011;68951;53.130;18.104;2023-06-14T11:30:33;8.90;;;4.70;;
79493;SDS011;68951;53.130;18.104;2023-06-14T11:33:00;9.30;;;4.10;;
79493;SDS011;68951;53.130;18.104;2023-06-14T11:35:27;9.60;;;4.70;;
79493;SDS011;68951;53.130;18.104;2023-06-14T11:37:55;8.00;;;4.20;;
79493;SDS011;68951;53.130;18.104;2023-06-14T11:40:27;10.00;;;4.40;;
79493;SDS011;68951;53.130;18.104;2023-06-14T11:43:00;9.60;;;4.40;;
79493;SDS011;68951;53.130;18.104;2023-06-14T11:45:29;7.00;;;3.50;;
79493;SDS011;68951;53.130;18.104;2023-06-14T11:47:58;9.50;;;4.30;;
79493;SDS011;68951;53.130;18.104;2023-06-14T11:50:26;8.90;;;4.40;;
79493;SDS011;68951;53.130;18.104;2023-06-14T11:52:55;9.40;;;3.90;;
79493;SDS011;68951;53.130;18.104;2023-06-14T11:55:24;10.00;;;4.20;;
79493;SDS011;68951;53.130;18.104;2023-06-14T11:57:53;8.20;;;4.00;;
79493;SDS011;68951;53.130;18.104;2023-06-14T12:00:25;9.50;;;3.80;;
79493;SDS011;68951;53.130;18.104;2023-06-14T12:02:54;6.60;;;2.60;;
79493;SDS011;68951;53.130;18.104;2023-06-14T12:05:25;9.20;;;4.30;;
79493;SDS011;68951;53.130;18.104;2023-06-14T12:07:59;11.40;;;4.80;;
79493;SDS011;68951;53.130;18.104;2023-06-14T12:10:29;6.30;;;3.00;;
79493;SDS011;68951;53.130;18.104;2023-06-14T12:12:58;9.50;;;3.60;;
79493;SDS011;68951;53.130;18.104;2023-06-14T12:15:29;7.50;;;3.90;;
79493;SDS011;68951;53.130;18.104;2023-06-14T12:17:58;10.10;;;3.60;;
79493;SDS011;68951;53.130;18.104;2023-06-14T12:20:29;8.00;;;3.80;;
79493;SDS011;68951;53.130;18.104;2023-06-14T12:23:03;8.80;;;3.20;;
79493;SDS011;68951;53.130;18.104;2023-06-14T12:25:31;8.00;;;3.50;;
79493;SDS011;68951;53.130;18.104;2023-06-14T12:28:09;8.10;;;3.10;;
79493;SDS011;68951;53.130;18.104;2023-06-14T12:30:37;7.80;;;3.40;;
79493;SDS011;68951;53.130;18.104;2023-06-14T12:33:04;7.00;;;3.20;;
79493;SDS011;68951;53.130;18.104;2023-06-14T12:35:32;7.70;;;3.10;;
79493;SDS011;68951;53.130;18.104;2023-06-14T12:38:00;7.40;;;3.70;;
79493;SDS011;68951;53.130;18.104;2023-06-14T12:40:27;10.20;;;3.80;;
79493;SDS011;68951;53.130;18.104;2023-06-14T12:42:54;8.10;;;3.90;;
79493;SDS011;68951;53.130;18.104;2023-06-14T12:45:21;9.20;;;4.00;;
79493;SDS011;68951;53.130;18.104;2023-06-14T12:47:49;8.80;;;3.80;;
79493;SDS011;68951;53.130;18.104;2023-06-14T12:50:16;7.50;;;4.00;;
79493;SDS011;68951;53.130;18.104;2023-06-14T12:52:43;7.80;;;3.40;;
79493;SDS011;68951;53.130;18.104;2023-06-14T12:55:10;8.80;;;4.20;;
79493;SDS011;68951;53.130;18.104;2023-06-14T12:57:36;8.70;;;4.40;;
79493;SDS011;68951;53.130;18.104;2023-06-14T13:00:05;9.10;;;3.50;;
79493;SDS011;68951;53.130;18.104;2023-06-14T13:02:34;10.80;;;3.60;;
79493;SDS011;68951;53.130;18.104;2023-06-14T13:05:01;12.30;;;4.50;;
79493;SDS011;68951;53.130;18.104;2023-06-14T13:07:30;10.20;;;4.30;;
79493;SDS011;68951;53.130;18.104;2023-06-14T13:09:58;9.80;;;4.30;;
79493;SDS011;68951;53.130;18.104;2023-06-14T13:12:25;7.90;;;3.70;;
79493;SDS011;68951;53.130;18.104;2023-06-14T13:14:51;7.90;;;3.70;;
79493;SDS011;68951;53.130;18.104;2023-06-14T13:17:18;7.70;;;3.30;;
79493;SDS011;68951;53.130;18.104;2023-06-14T13:19:45;8.80;;;4.20;;
79493;SDS011;68951;53.130;18.104;2023-06-14T13:22:12;7.60;;;3.60;;
79493;SDS011;68951;53.130;18.104;2023-06-14T13:24:39;7.70;;;3.90;;
79493;SDS011;68951;53.130;18.104;2023-06-14T13:27:06;7.70;;;3.40;;
79493;SDS011;68951;53.130;18.104;2023-06-14T13:29:33;6.00;;;2.90;;
79493;SDS011;68951;53.130;18.104;2023-06-14T13:32:03;6.60;;;2.80;;
79493;SDS011;68951;53.130;18.104;2023-06-14T13:34:30;6.80;;;3.00;;
79493;SDS011;68951;53.130;18.104;2023-06-14T13:36:57;7.30;;;3.20;;
79493;SDS011;68951;53.130;18.104;2023-06-14T13:39:25;6.70;;;2.70;;
79493;SDS011;68951;53.130;18.104;2023-06-14T13:41:52;5.40;;;2.40;;
79493;SDS011;68951;53.130;18.104;2023-06-14T13:44:19;6.90;;;3.20;;
79493;SDS011;68951;53.130;18.104;2023-06-14T13:46:47;8.10;;;3.30;;
79493;SDS011;68951;53.130;18.104;2023-06-14T13:49:14;7.70;;;3.00;;
79493;SDS011;68951;53.130;18.104;2023-06-14T13:51:41;7.60;;;3.00;;
79493;SDS011;68951;53.130;18.104;2023-06-14T13:54:08;9.20;;;3.00;;
79493;SDS011;68951;53.130;18.104;2023-06-14T13:56:35;7.60;;;3.10;;
79493;SDS011;68951;53.130;18.104;2023-06-14T13:59:02;8.00;;;3.10;;
79493;SDS011;68951;53.130;18.104;2023-06-14T14:01:30;8.10;;;3.30;;
79493;SDS011;68951;53.130;18.104;2023-06-14T14:03:57;8.60;;;3.90;;
79493;SDS011;68951;53.130;18.104;2023-06-14T14:06:25;7.20;;;3.20;;
79493;SDS011;68951;53.130;18.104;2023-06-14T14:08:51;9.30;;;4.00;;
79493;SDS011;68951;53.130;18.104;2023-06-14T14:11:19;8.50;;;3.60;;
79493;SDS011;68951;53.130;18.104;2023-06-14T14:13:46;9.60;;;3.80;;
79493;SDS011;68951;53.130;18.104;2023-06-14T14:16:15;7.00;;;3.40;;
79493;SDS011;68951;53.130;18.104;2023-06-14T14:18:42;6.90;;;3.80;;
79493;SDS011;68951;53.130;18.104;2023-06-14T14:21:09;8.10;;;3.80;;
79493;SDS011;68951;53.130;18.104;2023-06-14T14:23:36;9.60;;;3.70;;
79493;SDS011;68951;53.130;18.104;2023-06-14T14:26:03;9.30;;;3.90;;
79493;SDS011;68951;53.130;18.104;2023-06-14T14:28:31;7.50;;;3.50;;
79493;SDS011;68951;53.130;18.104;2023-06-14T14:30:59;6.50;;;3.00;;
79493;SDS011;68951;53.130;18.104;2023-06-14T14:33:26;6.60;;;3.00;;
79493;SDS011;68951;53.130;18.104;2023-06-14T14:35:53;7.50;;;2.60;;
79493;SDS011;68951;53.130;18.104;2023-06-14T14:38:20;5.20;;;2.00;;
79493;SDS011;68951;53.130;18.104;2023-06-14T14:40:48;7.70;;;2.70;;
79493;SDS011;68951;53.130;18.104;2023-06-14T14:43:15;4.90;;;2.40;;
79493;SDS011;68951;53.130;18.104;2023-06-14T14:45:42;5.30;;;2.10;;
79493;SDS011;68951;53.130;18.104;2023-06-14T14:48:09;4.80;;;2.10;;
79493;SDS011;68951;53.130;18.104;2023-06-14T14:50:36;6.60;;;2.10;;
79493;SDS011;68951;53.130;18.104;2023-06-14T14:53:05;5.10;;;2.40;;
79493;SDS011;68951;53.130;18.104;2023-06-14T14:55:32;6.40;;;2.60;;
79493;SDS011;68951;53.130;18.104;2023-06-14T14:58:02;5.90;;;2.40;;
79493;SDS011;68951;53.130;18.104;2023-06-14T15:00:29;7.50;;;2.50;;